sensor_id;sensor_type;location;lat;lon;timestamp;P1;durP1;ratioP1;P2;durP2;ratioP2
10902;SDS011;5504;47.312;11.060;2024-03-22T00:00:42;8.47;;;7.57;;
10902;SDS011;5504;47.312;11.060;2024-03-22T00:03:08;9.13;;;7.77;;
10902;SDS011;5504;47.312;11.060;2024-03-22T00:05:34;10.00;;;9.00;;
10902;SDS011;5504;47.312;11.060;2024-03-22T00:07:59;8.33;;;7.47;;
10902;SDS011;5504;47.312;11.060;2024-03-22T00:10:25;8.13;;;7.33;;
10902;SDS011;5504;47.312;11.060;2024-03-22T00:12:51;9.43;;;7.93;;
10902;SDS011;5504;47.312;11.060;2024-03-22T00:15:17;10.20;;;9.07;;
10902;SDS011;5504;47.312;11.060;2024-03-22T00:17:43;10.87;;;9.77;;
10902;SDS011;5504;47.312;11.060;2024-03-22T00:20:09;9.83;;;8.77;;
10902;SDS011;5504;47.312;11.060;2024-03-22T00:22:35;9.53;;;8.57;;
10902;SDS011;5504;47.312;11.060;2024-03-22T00:25:01;10.60;;;9.17;;
10902;SDS011;5504;47.312;11.060;2024-03-22T00:27:27;10.13;;;9.13;;
10902;SDS011;5504;47.312;11.060;2024-03-22T00:29:53;12.27;;;10.73;;
10902;SDS011;5504;47.312;11.060;2024-03-22T00:32:18;10.20;;;9.13;;
10902;SDS011;5504;47.312;11.060;2024-03-22T00:34:44;10.83;;;9.43;;
10902;SDS011;5504;47.312;11.060;2024-03-22T00:37:10;11.97;;;10.67;;
10902;SDS011;5504;47.312;11.060;2024-03-22T00:39:36;11.93;;;10.50;;
10902;SDS011;5504;47.312;11.060;2024-03-22T00:42:02;12.17;;;10.23;;
10902;SDS011;5504;47.312;11.060;2024-03-22T00:44:28;11.13;;;9.93;;
10902;SDS011;5504;47.312;11.060;2024-03-22T00:46:53;13.80;;;11.33;;
10902;SDS011;5504;47.312;11.060;2024-03-22T00:49:19;10.83;;;9.10;;
10902;SDS011;5504;47.312;11.060;2024-03-22T00:51:45;12.03;;;9.37;;
10902;SDS011;5504;47.312;11.060;2024-03-22T00:54:12;10.00;;;8.90;;
10902;SDS011;5504;47.312;11.060;2024-03-22T00:56:38;12.10;;;9.90;;
10902;SDS011;5504;47.312;11.060;2024-03-22T00:59:04;11.30;;;10.10;;
10902;SDS011;5504;47.312;11.060;2024-03-22T01:01:29;12.10;;;9.50;;
10902;SDS011;5504;47.312;11.060;2024-03-22T01:03:55;12.77;;;10.93;;
10902;SDS011;5504;47.312;11.060;2024-03-22T01:06:21;12.73;;;11.33;;
10902;SDS011;5504;47.312;11.060;2024-03-22T01:08:50;11.30;;;9.90;;
10902;SDS011;5504;47.312;11.060;2024-03-22T01:11:16;10.47;;;9.17;;
10902;SDS011;5504;47.312;11.060;2024-03-22T01:13:43;11.07;;;8.97;;
10902;SDS011;5504;47.312;11.060;2024-03-22T01:16:08;9.67;;;8.30;;
10902;SDS011;5504;47.312;11.060;2024-03-22T01:18:35;9.27;;;8.13;;
10902;SDS011;5504;47.312;11.060;2024-03-22T01:21:01;10.70;;;9.57;;
10902;SDS011;5504;47.312;11.060;2024-03-22T01:23:27;10.83;;;9.70;;
10902;SDS011;5504;47.312;11.060;2024-03-22T01:25:53;12.30;;;11.00;;
10902;SDS011;5504;47.312;11.060;2024-03-22T01:28:19;12.00;;;10.70;;
10902;SDS011;5504;47.312;11.060;2024-03-22T01:30:44;15.33;;;12.23;;
10902;SDS011;5504;47.312;11.060;2024-03-22T01:33:10;11.83;;;10.33;;
10902;SDS011;5504;47.312;11.060;2024-03-22T01:35:36;10.97;;;9.87;;
10902;SDS011;5504;47.312;11.060;2024-03-22T01:38:01;12.27;;;10.97;;
10902;SDS011;5504;47.312;11.060;2024-03-22T01:40:27;11.83;;;10.53;;
10902;SDS011;5504;47.312;11.060;2024-03-22T01:42:55;13.40;;;10.87;;
10902;SDS011;5504;47.312;11.060;2024-03-22T01:45:21;13.47;;;11.53;;
10902;SDS011;5504;47.312;11.060;2024-03-22T01:47:49;13.00;;;11.40;;
10902;SDS011;5504;47.312;11.060;2024-03-22T01:50:22;12.77;;;11.13;;
10902;SDS011;5504;47.312;11.060;2024-03-22T01:52:48;13.47;;;11.43;;
10902;SDS011;5504;47.312;11.060;2024-03-22T01:55:14;13.07;;;11.53;;
10902;SDS011;5504;47.312;11.060;2024-03-22T01:57:40;12.40;;;10.73;;
10902;SDS011;5504;47.312;11.060;2024-03-22T02:00:07;12.03;;;10.73;;
10902;SDS011;5504;47.312;11.060;2024-03-22T02:02:34;11.23;;;9.90;;
10902;SDS011;5504;47.312;11.060;2024-03-22T02:05:10;12.67;;;10.30;;
10902;SDS011;5504;47.312;11.060;2024-03-22T02:07:41;12.43;;;10.80;;
10902;SDS011;5504;47.312;11.060;2024-03-22T02:10:07;12.67;;;10.97;;
10902;SDS011;5504;47.312;11.060;2024-03-22T02:12:36;13.30;;;11.33;;
10902;SDS011;5504;47.312;11.060;2024-03-22T02:15:02;13.87;;;11.67;;
10902;SDS011;5504;47.312;11.060;2024-03-22T02:17:28;12.93;;;11.10;;
10902;SDS011;5504;47.312;11.060;2024-03-22T02:19:54;14.80;;;11.60;;
10902;SDS011;5504;47.312;11.060;2024-03-22T02:22:20;13.33;;;11.77;;
10902;SDS011;5504;47.312;11.060;2024-03-22T02:24:45;11.60;;;10.40;;
10902;SDS011;5504;47.312;11.060;2024-03-22T02:27:11;12.47;;;10.53;;
10902;SDS011;5504;47.312;11.060;2024-03-22T02:29:37;12.23;;;10.90;;
10902;SDS011;5504;47.312;11.060;2024-03-22T02:32:03;12.73;;;10.97;;
10902;SDS011;5504;47.312;11.060;2024-03-22T02:34:29;12.57;;;10.77;;
10902;SDS011;5504;47.312;11.060;2024-03-22T02:36:54;11.83;;;10.63;;
10902;SDS011;5504;47.312;11.060;2024-03-22T02:39:20;12.40;;;10.60;;
10902;SDS011;5504;47.312;11.060;2024-03-22T02:41:46;11.87;;;10.60;;
10902;SDS011;5504;47.312;11.060;2024-03-22T02:44:11;12.87;;;11.10;;
10902;SDS011;5504;47.312;11.060;2024-03-22T02:46:37;11.37;;;9.83;;
10902;SDS011;5504;47.312;11.060;2024-03-22T02:49:03;10.40;;;9.30;;
10902;SDS011;5504;47.312;11.060;2024-03-22T02:51:28;12.40;;;10.33;;
10902;SDS011;5504;47.312;11.060;2024-03-22T02:53:54;11.10;;;9.90;;
10902;SDS011;5504;47.312;11.060;2024-03-22T02:56:20;12.03;;;10.40;;
10902;SDS011;5504;47.312;11.060;2024-03-22T02:58:46;11.47;;;10.27;;
10902;SDS011;5504;47.312;11.060;2024-03-22T03:01:11;10.77;;;9.67;;
10902;SDS011;5504;47.312;11.060;2024-03-22T03:03:37;11.97;;;10.70;;
10902;SDS011;5504;47.312;11.060;2024-03-22T03:06:03;12.87;;;10.63;;
10902;SDS011;5504;47.312;11.060;2024-03-22T03:08:29;12.87;;;10.80;;
10902;SDS011;5504;47.312;11.060;2024-03-22T03:10:54;11.30;;;10.10;;
10902;SDS011;5504;47.312;11.060;2024-03-22T03:13:20;13.00;;;11.07;;
10902;SDS011;5504;47.312;11.060;2024-03-22T03:15:46;10.23;;;8.03;;
10902;SDS011;5504;47.312;11.060;2024-03-22T03:18:12;8.70;;;7.87;;
10902;SDS011;5504;47.312;11.060;2024-03-22T03:20:37;9.57;;;8.57;;
10902;SDS011;5504;47.312;11.060;2024-03-22T03:23:03;10.33;;;8.70;;
10902;SDS011;5504;47.312;11.060;2024-03-22T03:25:29;8.40;;;7.53;;
10902;SDS011;5504;47.312;11.060;2024-03-22T03:27:54;8.20;;;7.40;;
10902;SDS011;5504;47.312;11.060;2024-03-22T03:30:20;6.97;;;6.23;;
10902;SDS011;5504;47.312;11.060;2024-03-22T03:32:46;7.13;;;6.43;;
10902;SDS011;5504;47.312;11.060;2024-03-22T03:35:12;8.70;;;6.40;;
10902;SDS011;5504;47.312;11.060;2024-03-22T03:37:37;6.10;;;5.50;;
10902;SDS011;5504;47.312;11.060;2024-03-22T03:40:03;6.83;;;6.13;;
10902;SDS011;5504;47.312;11.060;2024-03-22T03:42:29;6.87;;;6.23;;
10902;SDS011;5504;47.312;11.060;2024-03-22T03:44:55;6.57;;;5.87;;
10902;SDS011;5504;47.312;11.060;2024-03-22T03:47:21;6.27;;;5.67;;
10902;SDS011;5504;47.312;11.060;2024-03-22T03:49:46;6.80;;;6.20;;
10902;SDS011;5504;47.312;11.060;2024-03-22T03:52:13;6.50;;;5.90;;
10902;SDS011;5504;47.312;11.060;2024-03-22T03:54:39;7.33;;;6.17;;
10902;SDS011;5504;47.312;11.060;2024-03-22T03:57:05;6.77;;;6.13;;
10902;SDS011;5504;47.312;11.060;2024-03-22T03:59:31;7.17;;;6.47;;
10902;SDS011;5504;47.312;11.060;2024-03-22T04:01:56;7.47;;;6.67;;
10902;SDS011;5504;47.312;11.060;2024-03-22T04:04:22;8.30;;;6.93;;
10902;SDS011;5504;47.312;11.060;2024-03-22T04:06:48;6.93;;;6.23;;
10902;SDS011;5504;47.312;11.060;2024-03-22T04:09:13;7.27;;;6.10;;
10902;SDS011;5504;47.312;11.060;2024-03-22T04:11:39;6.97;;;6.27;;
10902;SDS011;5504;47.312;11.060;2024-03-22T04:14:05;7.53;;;6.53;;
10902;SDS011;5504;47.312;11.060;2024-03-22T04:16:31;7.87;;;6.30;;
10902;SDS011;5504;47.312;11.060;2024-03-22T04:18:57;7.27;;;6.40;;
10902;SDS011;5504;47.312;11.060;2024-03-22T04:21:23;6.43;;;5.80;;
10902;SDS011;5504;47.312;11.060;2024-03-22T04:23:49;6.70;;;6.10;;
10902;SDS011;5504;47.312;11.060;2024-03-22T04:26:14;6.77;;;5.90;;
10902;SDS011;5504;47.312;11.060;2024-03-22T04:28:40;6.30;;;5.70;;
10902;SDS011;5504;47.312;11.060;2024-03-22T04:31:07;6.33;;;5.73;;
10902;SDS011;5504;47.312;11.060;2024-03-22T04:33:34;6.00;;;5.43;;
10902;SDS011;5504;47.312;11.060;2024-03-22T04:36:01;6.57;;;5.80;;
10902;SDS011;5504;47.312;11.060;2024-03-22T04:38:27;6.60;;;5.90;;
10902;SDS011;5504;47.312;11.060;2024-03-22T04:40:54;6.60;;;6.00;;
10902;SDS011;5504;47.312;11.060;2024-03-22T04:43:21;6.63;;;5.93;;
10902;SDS011;5504;47.312;11.060;2024-03-22T04:45:50;7.03;;;6.30;;
10902;SDS011;5504;47.312;11.060;2024-03-22T04:48:17;6.77;;;6.10;;
10902;SDS011;5504;47.312;11.060;2024-03-22T04:50:44;7.33;;;5.97;;
10902;SDS011;5504;47.312;11.060;2024-03-22T04:53:10;6.13;;;5.53;;
10902;SDS011;5504;47.312;11.060;2024-03-22T04:55:36;6.13;;;5.40;;
10902;SDS011;5504;47.312;11.060;2024-03-22T04:58:03;6.53;;;5.93;;
10902;SDS011;5504;47.312;11.060;2024-03-22T05:00:29;6.60;;;6.00;;
10902;SDS011;5504;47.312;11.060;2024-03-22T05:02:54;6.63;;;5.93;;
10902;SDS011;5504;47.312;11.060;2024-03-22T05:05:20;7.00;;;6.30;;
10902;SDS011;5504;47.312;11.060;2024-03-22T05:07:46;6.77;;;6.17;;
10902;SDS011;5504;47.312;11.060;2024-03-22T05:10:12;7.07;;;6.37;;
10902;SDS011;5504;47.312;11.060;2024-03-22T05:12:38;6.37;;;5.70;;
10902;SDS011;5504;47.312;11.060;2024-03-22T05:15:05;7.63;;;5.90;;
10902;SDS011;5504;47.312;11.060;2024-03-22T05:17:31;6.33;;;5.73;;
10902;SDS011;5504;47.312;11.060;2024-03-22T05:19:58;6.50;;;5.77;;
10902;SDS011;5504;47.312;11.060;2024-03-22T05:22:24;6.70;;;6.10;;
10902;SDS011;5504;47.312;11.060;2024-03-22T05:24:50;14.80;;;12.87;;
10902;SDS011;5504;47.312;11.060;2024-03-22T05:27:16;9.17;;;8.03;;
10902;SDS011;5504;47.312;11.060;2024-03-22T05:29:42;7.37;;;6.27;;
10902;SDS011;5504;47.312;11.060;2024-03-22T05:32:08;6.27;;;5.67;;
10902;SDS011;5504;47.312;11.060;2024-03-22T05:34:34;6.70;;;6.00;;
10902;SDS011;5504;47.312;11.060;2024-03-22T05:37:00;6.97;;;6.07;;
10902;SDS011;5504;47.312;11.060;2024-03-22T05:39:26;7.10;;;5.90;;
10902;SDS011;5504;47.312;11.060;2024-03-22T05:41:52;6.27;;;5.67;;
10902;SDS011;5504;47.312;11.060;2024-03-22T05:44:19;7.00;;;6.20;;
10902;SDS011;5504;47.312;11.060;2024-03-22T05:46:47;6.80;;;6.10;;
10902;SDS011;5504;47.312;11.060;2024-03-22T05:49:13;6.13;;;5.60;;
10902;SDS011;5504;47.312;11.060;2024-03-22T05:51:39;6.00;;;5.40;;
10902;SDS011;5504;47.312;11.060;2024-03-22T05:54:05;5.87;;;5.27;;
10902;SDS011;5504;47.312;11.060;2024-03-22T05:56:31;6.20;;;5.60;;
10902;SDS011;5504;47.312;11.060;2024-03-22T05:58:57;6.37;;;5.60;;
10902;SDS011;5504;47.312;11.060;2024-03-22T06:01:23;6.33;;;5.73;;
10902;SDS011;5504;47.312;11.060;2024-03-22T06:03:48;5.70;;;5.20;;
10902;SDS011;5504;47.312;11.060;2024-03-22T06:06:14;5.87;;;5.27;;
10902;SDS011;5504;47.312;11.060;2024-03-22T06:08:41;6.17;;;5.23;;
10902;SDS011;5504;47.312;11.060;2024-03-22T06:11:10;5.93;;;5.33;;
10902;SDS011;5504;47.312;11.060;2024-03-22T06:13:35;5.37;;;4.87;;
10902;SDS011;5504;47.312;11.060;2024-03-22T06:16:01;6.83;;;5.57;;
10902;SDS011;5504;47.312;11.060;2024-03-22T06:18:27;5.60;;;5.10;;
10902;SDS011;5504;47.312;11.060;2024-03-22T06:20:53;5.13;;;4.73;;
10902;SDS011;5504;47.312;11.060;2024-03-22T06:23:20;5.53;;;5.03;;
10902;SDS011;5504;47.312;11.060;2024-03-22T06:25:53;5.53;;;5.03;;
10902;SDS011;5504;47.312;11.060;2024-03-22T06:28:20;6.43;;;5.50;;
10902;SDS011;5504;47.312;11.060;2024-03-22T06:30:46;7.30;;;5.50;;
10902;SDS011;5504;47.312;11.060;2024-03-22T06:33:12;6.50;;;5.80;;
10902;SDS011;5504;47.312;11.060;2024-03-22T06:35:37;6.40;;;5.80;;
10902;SDS011;5504;47.312;11.060;2024-03-22T06:38:03;7.10;;;5.90;;
10902;SDS011;5504;47.312;11.060;2024-03-22T06:40:29;5.90;;;4.87;;
10902;SDS011;5504;47.312;11.060;2024-03-22T06:42:55;5.67;;;4.53;;
10902;SDS011;5504;47.312;11.060;2024-03-22T06:45:21;5.83;;;5.23;;
10902;SDS011;5504;47.312;11.060;2024-03-22T06:47:47;5.23;;;4.73;;
10902;SDS011;5504;47.312;11.060;2024-03-22T06:50:13;5.20;;;4.70;;
10902;SDS011;5504;47.312;11.060;2024-03-22T06:52:39;5.17;;;4.67;;
10902;SDS011;5504;47.312;11.060;2024-03-22T06:55:04;4.63;;;4.20;;
10902;SDS011;5504;47.312;11.060;2024-03-22T06:57:31;4.73;;;4.13;;
10902;SDS011;5504;47.312;11.060;2024-03-22T06:59:59;4.80;;;4.03;;
10902;SDS011;5504;47.312;11.060;2024-03-22T07:02:25;7.73;;;6.93;;
10902;SDS011;5504;47.312;11.060;2024-03-22T07:04:51;4.90;;;4.00;;
10902;SDS011;5504;47.312;11.060;2024-03-22T07:07:17;3.80;;;3.50;;
10902;SDS011;5504;47.312;11.060;2024-03-22T07:09:44;3.70;;;3.20;;
10902;SDS011;5504;47.312;11.060;2024-03-22T07:12:10;4.00;;;3.60;;
10902;SDS011;5504;47.312;11.060;2024-03-22T07:14:36;5.00;;;3.70;;
10902;SDS011;5504;47.312;11.060;2024-03-22T07:17:02;3.97;;;3.50;;
10902;SDS011;5504;47.312;11.060;2024-03-22T07:19:28;3.60;;;3.30;;
10902;SDS011;5504;47.312;11.060;2024-03-22T07:21:53;3.73;;;3.43;;
10902;SDS011;5504;47.312;11.060;2024-03-22T07:24:19;4.10;;;3.60;;
10902;SDS011;5504;47.312;11.060;2024-03-22T07:26:48;4.53;;;4.00;;
10902;SDS011;5504;47.312;11.060;2024-03-22T07:29:14;4.00;;;3.57;;
10902;SDS011;5504;47.312;11.060;2024-03-22T07:31:40;5.23;;;4.73;;
10902;SDS011;5504;47.312;11.060;2024-03-22T07:34:06;5.27;;;4.77;;
10902;SDS011;5504;47.312;11.060;2024-03-22T07:36:32;5.23;;;4.63;;
10902;SDS011;5504;47.312;11.060;2024-03-22T07:39:03;4.30;;;3.90;;
10902;SDS011;5504;47.312;11.060;2024-03-22T07:41:31;4.70;;;2.93;;
10902;SDS011;5504;47.312;11.060;2024-03-22T07:43:58;5.10;;;4.60;;
10902;SDS011;5504;47.312;11.060;2024-03-22T07:46:25;4.37;;;3.00;;
10902;SDS011;5504;47.312;11.060;2024-03-22T07:48:51;3.40;;;3.10;;
10902;SDS011;5504;47.312;11.060;2024-03-22T07:51:17;3.53;;;2.80;;
10902;SDS011;5504;47.312;11.060;2024-03-22T07:53:44;3.33;;;2.83;;
10902;SDS011;5504;47.312;11.060;2024-03-22T07:56:09;3.53;;;3.03;;
10902;SDS011;5504;47.312;11.060;2024-03-22T07:58:36;3.30;;;3.00;;
10902;SDS011;5504;47.312;11.060;2024-03-22T08:01:01;4.00;;;3.00;;
10902;SDS011;5504;47.312;11.060;2024-03-22T08:03:27;3.40;;;2.70;;
10902;SDS011;5504;47.312;11.060;2024-03-22T08:05:53;2.73;;;2.47;;
10902;SDS011;5504;47.312;11.060;2024-03-22T08:08:18;3.10;;;2.90;;
10902;SDS011;5504;47.312;11.060;2024-03-22T08:10:44;3.47;;;2.97;;
10902;SDS011;5504;47.312;11.060;2024-03-22T08:13:10;3.20;;;2.80;;
10902;SDS011;5504;47.312;11.060;2024-03-22T08:15:36;3.60;;;3.03;;
10902;SDS011;5504;47.312;11.060;2024-03-22T08:18:02;5.10;;;3.03;;
10902;SDS011;5504;47.312;11.060;2024-03-22T08:20:28;3.70;;;2.90;;
10902;SDS011;5504;47.312;11.060;2024-03-22T08:22:53;3.10;;;2.80;;
10902;SDS011;5504;47.312;11.060;2024-03-22T08:25:19;2.87;;;2.67;;
10902;SDS011;5504;47.312;11.060;2024-03-22T08:27:46;3.60;;;3.00;;
10902;SDS011;5504;47.312;11.060;2024-03-22T08:30:12;2.87;;;2.63;;
10902;SDS011;5504;47.312;11.060;2024-03-22T08:32:38;3.43;;;2.70;;
10902;SDS011;5504;47.312;11.060;2024-03-22T08:35:04;3.00;;;2.70;;
10902;SDS011;5504;47.312;11.060;2024-03-22T08:37:31;2.70;;;2.50;;
10902;SDS011;5504;47.312;11.060;2024-03-22T08:39:58;2.63;;;2.43;;
10902;SDS011;5504;47.312;11.060;2024-03-22T08:42:23;3.33;;;2.60;;
10902;SDS011;5504;47.312;11.060;2024-03-22T08:44:49;3.17;;;2.60;;
10902;SDS011;5504;47.312;11.060;2024-03-22T08:47:15;2.73;;;2.50;;
10902;SDS011;5504;47.312;11.060;2024-03-22T08:49:40;2.80;;;2.30;;
10902;SDS011;5504;47.312;11.060;2024-03-22T08:52:11;2.83;;;2.53;;
10902;SDS011;5504;47.312;11.060;2024-03-22T08:54:36;3.20;;;2.90;;
10902;SDS011;5504;47.312;11.060;2024-03-22T08:57:02;3.23;;;2.53;;
10902;SDS011;5504;47.312;11.060;2024-03-22T08:59:28;2.97;;;2.63;;
10902;SDS011;5504;47.312;11.060;2024-03-22T09:01:54;2.80;;;2.60;;
10902;SDS011;5504;47.312;11.060;2024-03-22T09:04:19;3.30;;;2.57;;
10902;SDS011;5504;47.312;11.060;2024-03-22T09:06:45;2.50;;;2.30;;
10902;SDS011;5504;47.312;11.060;2024-03-22T09:09:11;3.07;;;2.53;;
10902;SDS011;5504;47.312;11.060;2024-03-22T09:11:37;2.67;;;2.47;;
10902;SDS011;5504;47.312;11.060;2024-03-22T09:14:03;3.85;;;2.63;;
10902;SDS011;5504;47.312;11.060;2024-03-22T09:16:29;3.00;;;2.70;;
10902;SDS011;5504;47.312;11.060;2024-03-22T09:18:55;3.30;;;2.45;;
10902;SDS011;5504;47.312;11.060;2024-03-22T09:21:21;3.50;;;2.72;;
10902;SDS011;5504;47.312;11.060;2024-03-22T09:23:49;2.78;;;2.58;;
10902;SDS011;5504;47.312;11.060;2024-03-22T09:26:15;2.90;;;2.60;;
10902;SDS011;5504;47.312;11.060;2024-03-22T09:28:41;2.60;;;2.30;;
10902;SDS011;5504;47.312;11.060;2024-03-22T09:31:07;2.90;;;2.70;;
10902;SDS011;5504;47.312;11.060;2024-03-22T09:33:33;3.40;;;3.00;;
10902;SDS011;5504;47.312;11.060;2024-03-22T09:35:59;2.97;;;2.70;;
10902;SDS011;5504;47.312;11.060;2024-03-22T09:38:25;3.17;;;2.70;;
10902;SDS011;5504;47.312;11.060;2024-03-22T09:40:51;2.53;;;2.30;;
10902;SDS011;5504;47.312;11.060;2024-03-22T09:43:22;2.97;;;2.70;;
10902;SDS011;5504;47.312;11.060;2024-03-22T09:45:51;2.83;;;2.50;;
10902;SDS011;5504;47.312;11.060;2024-03-22T09:48:18;2.70;;;2.30;;
10902;SDS011;5504;47.312;11.060;2024-03-22T09:50:46;2.75;;;2.28;;
10902;SDS011;5504;47.312;11.060;2024-03-22T09:53:18;3.17;;;2.22;;
10902;SDS011;5504;47.312;11.060;2024-03-22T09:55:46;2.65;;;2.45;;
10902;SDS011;5504;47.312;11.060;2024-03-22T09:58:13;2.75;;;2.30;;
10902;SDS011;5504;47.312;11.060;2024-03-22T10:00:39;3.42;;;2.63;;
10902;SDS011;5504;47.312;11.060;2024-03-22T10:03:05;3.05;;;2.45;;
10902;SDS011;5504;47.312;11.060;2024-03-22T10:05:31;2.70;;;2.50;;
10902;SDS011;5504;47.312;11.060;2024-03-22T10:07:57;2.38;;;2.17;;
10902;SDS011;5504;47.312;11.060;2024-03-22T10:10:23;3.58;;;2.63;;
10902;SDS011;5504;47.312;11.060;2024-03-22T10:12:49;2.50;;;2.30;;
10902;SDS011;5504;47.312;11.060;2024-03-22T10:15:14;4.85;;;2.47;;
10902;SDS011;5504;47.312;11.060;2024-03-22T10:17:40;2.63;;;2.40;;
10902;SDS011;5504;47.312;11.060;2024-03-22T10:20:06;4.60;;;2.55;;
10902;SDS011;5504;47.312;11.060;2024-03-22T10:22:48;2.70;;;2.50;;
10902;SDS011;5504;47.312;11.060;2024-03-22T10:25:22;4.25;;;2.60;;
10902;SDS011;5504;47.312;11.060;2024-03-22T10:27:48;4.93;;;2.40;;
10902;SDS011;5504;47.312;11.060;2024-03-22T10:30:15;2.45;;;2.10;;
10902;SDS011;5504;47.312;11.060;2024-03-22T10:32:42;2.55;;;1.90;;
10902;SDS011;5504;47.312;11.060;2024-03-22T10:35:11;2.40;;;2.08;;
10902;SDS011;5504;47.312;11.060;2024-03-22T10:37:38;2.85;;;2.22;;
10902;SDS011;5504;47.312;11.060;2024-03-22T10:40:04;2.20;;;2.00;;
10902;SDS011;5504;47.312;11.060;2024-03-22T10:42:37;2.47;;;2.28;;
10902;SDS011;5504;47.312;11.060;2024-03-22T10:45:04;3.65;;;2.10;;
10902;SDS011;5504;47.312;11.060;2024-03-22T10:47:33;2.30;;;2.10;;
10902;SDS011;5504;47.312;11.060;2024-03-22T10:50:07;3.00;;;2.08;;
10902;SDS011;5504;47.312;11.060;2024-03-22T10:52:46;3.67;;;2.20;;
10902;SDS011;5504;47.312;11.060;2024-03-22T10:55:19;4.25;;;2.50;;
10902;SDS011;5504;47.312;11.060;2024-03-22T10:57:53;2.97;;;1.92;;
10902;SDS011;5504;47.312;11.060;2024-03-22T11:00:26;3.60;;;2.03;;
10902;SDS011;5504;47.312;11.060;2024-03-22T11:02:53;3.03;;;2.03;;
10902;SDS011;5504;47.312;11.060;2024-03-22T11:05:19;1.70;;;1.60;;
10902;SDS011;5504;47.312;11.060;2024-03-22T11:07:45;2.42;;;2.10;;
10902;SDS011;5504;47.312;11.060;2024-03-22T11:10:11;2.10;;;1.90;;
10902;SDS011;5504;47.312;11.060;2024-03-22T11:12:38;3.35;;;1.80;;
10902;SDS011;5504;47.312;11.060;2024-03-22T11:15:08;2.17;;;1.98;;
10902;SDS011;5504;47.312;11.060;2024-03-22T11:17:35;2.40;;;1.75;;
10902;SDS011;5504;47.312;11.060;2024-03-22T11:20:01;1.77;;;1.67;;
10902;SDS011;5504;47.312;11.060;2024-03-22T11:22:27;1.92;;;1.48;;
10902;SDS011;5504;47.312;11.060;2024-03-22T11:24:53;2.95;;;1.63;;
10902;SDS011;5504;47.312;11.060;2024-03-22T11:27:19;2.33;;;1.70;;
10902;SDS011;5504;47.312;11.060;2024-03-22T11:29:45;1.90;;;1.60;;
10902;SDS011;5504;47.312;11.060;2024-03-22T11:32:12;2.72;;;1.67;;
10902;SDS011;5504;47.312;11.060;2024-03-22T11:34:38;1.83;;;1.73;;
10902;SDS011;5504;47.312;11.060;2024-03-22T11:37:06;1.58;;;1.48;;
10902;SDS011;5504;47.312;11.060;2024-03-22T11:39:35;1.92;;;1.40;;
10902;SDS011;5504;47.312;11.060;2024-03-22T11:42:04;2.50;;;1.38;;
10902;SDS011;5504;47.312;11.060;2024-03-22T11:44:32;2.72;;;1.60;;
10902;SDS011;5504;47.312;11.060;2024-03-22T11:46:59;1.75;;;1.40;;
10902;SDS011;5504;47.312;11.060;2024-03-22T11:49:25;1.75;;;1.48;;
10902;SDS011;5504;47.312;11.060;2024-03-22T11:51:51;1.77;;;1.30;;
10902;SDS011;5504;47.312;11.060;2024-03-22T11:54:20;2.22;;;1.50;;
10902;SDS011;5504;47.312;11.060;2024-03-22T11:56:46;1.65;;;1.35;;
10902;SDS011;5504;47.312;11.060;2024-03-22T11:59:12;2.40;;;1.65;;
10902;SDS011;5504;47.312;11.060;2024-03-22T12:01:38;2.25;;;1.33;;
10902;SDS011;5504;47.312;11.060;2024-03-22T12:04:06;1.92;;;1.27;;
10902;SDS011;5504;47.312;11.060;2024-03-22T12:06:36;3.03;;;1.52;;
10902;SDS011;5504;47.312;11.060;2024-03-22T12:09:02;1.83;;;1.27;;
10902;SDS011;5504;47.312;11.060;2024-03-22T12:11:28;1.80;;;1.67;;
10902;SDS011;5504;47.312;11.060;2024-03-22T12:13:54;1.55;;;1.45;;
10902;SDS011;5504;47.312;11.060;2024-03-22T12:16:20;2.17;;;1.40;;
10902;SDS011;5504;47.312;11.060;2024-03-22T12:18:45;1.35;;;1.25;;
10902;SDS011;5504;47.312;11.060;2024-03-22T12:21:11;2.15;;;1.95;;
10902;SDS011;5504;47.312;11.060;2024-03-22T12:23:37;1.85;;;1.60;;
10902;SDS011;5504;47.312;11.060;2024-03-22T12:26:03;1.45;;;1.13;;
10902;SDS011;5504;47.312;11.060;2024-03-22T12:28:28;1.30;;;1.20;;
10902;SDS011;5504;47.312;11.060;2024-03-22T12:30:54;1.83;;;1.30;;
10902;SDS011;5504;47.312;11.060;2024-03-22T12:33:20;1.50;;;1.30;;
10902;SDS011;5504;47.312;11.060;2024-03-22T12:35:46;1.20;;;1.10;;
10902;SDS011;5504;47.312;11.060;2024-03-22T12:38:13;1.58;;;1.10;;
10902;SDS011;5504;47.312;11.060;2024-03-22T12:40:39;1.52;;;1.20;;
10902;SDS011;5504;47.312;11.060;2024-03-22T12:43:05;1.40;;;1.20;;
10902;SDS011;5504;47.312;11.060;2024-03-22T12:45:31;2.08;;;1.10;;
10902;SDS011;5504;47.312;11.060;2024-03-22T12:48:00;1.63;;;1.52;;
10902;SDS011;5504;47.312;11.060;2024-03-22T12:50:26;2.55;;;1.40;;
10902;SDS011;5504;47.312;11.060;2024-03-22T12:52:52;1.30;;;1.20;;
10902;SDS011;5504;47.312;11.060;2024-03-22T12:55:18;1.10;;;1.00;;
10902;SDS011;5504;47.312;11.060;2024-03-22T12:57:43;1.10;;;1.00;;
10902;SDS011;5504;47.312;11.060;2024-03-22T13:00:10;1.45;;;1.20;;
10902;SDS011;5504;47.312;11.060;2024-03-22T13:02:43;1.20;;;1.10;;
10902;SDS011;5504;47.312;11.060;2024-03-22T13:05:09;1.45;;;1.00;;
10902;SDS011;5504;47.312;11.060;2024-03-22T13:07:35;2.20;;;1.30;;
10902;SDS011;5504;47.312;11.060;2024-03-22T13:10:01;1.10;;;1.00;;
10902;SDS011;5504;47.312;11.060;2024-03-22T13:12:27;1.35;;;1.10;;
10902;SDS011;5504;47.312;11.060;2024-03-22T13:14:56;1.08;;;1.00;;
10902;SDS011;5504;47.312;11.060;2024-03-22T13:17:22;1.35;;;1.20;;
10902;SDS011;5504;47.312;11.060;2024-03-22T13:19:48;1.35;;;1.20;;
10902;SDS011;5504;47.312;11.060;2024-03-22T13:22:14;1.42;;;1.00;;
10902;SDS011;5504;47.312;11.060;2024-03-22T13:24:43;1.40;;;1.10;;
10902;SDS011;5504;47.312;11.060;2024-03-22T13:27:09;3.40;;;1.10;;
10902;SDS011;5504;47.312;11.060;2024-03-22T13:29:35;1.67;;;0.98;;
10902;SDS011;5504;47.312;11.060;2024-03-22T13:32:01;1.35;;;1.20;;
10902;SDS011;5504;47.312;11.060;2024-03-22T13:34:27;2.00;;;1.13;;
10902;SDS011;5504;47.312;11.060;2024-03-22T13:36:53;1.17;;;1.08;;
10902;SDS011;5504;47.312;11.060;2024-03-22T13:39:19;1.25;;;1.00;;
10902;SDS011;5504;47.312;11.060;2024-03-22T13:41:45;2.35;;;1.05;;
10902;SDS011;5504;47.312;11.060;2024-03-22T13:44:10;0.80;;;0.80;;
10902;SDS011;5504;47.312;11.060;2024-03-22T13:46:36;1.30;;;1.00;;
10902;SDS011;5504;47.312;11.060;2024-03-22T13:49:12;1.48;;;1.05;;
10902;SDS011;5504;47.312;11.060;2024-03-22T13:51:41;1.40;;;1.05;;
10902;SDS011;5504;47.312;11.060;2024-03-22T13:54:07;1.38;;;1.10;;
10902;SDS011;5504;47.312;11.060;2024-03-22T13:56:32;1.27;;;1.10;;
10902;SDS011;5504;47.312;11.060;2024-03-22T13:58:58;1.15;;;0.90;;
10902;SDS011;5504;47.312;11.060;2024-03-22T14:01:24;1.20;;;1.00;;
10902;SDS011;5504;47.312;11.060;2024-03-22T14:03:49;1.30;;;1.15;;
10902;SDS011;5504;47.312;11.060;2024-03-22T14:06:15;1.10;;;1.00;;
10902;SDS011;5504;47.312;11.060;2024-03-22T14:08:41;1.35;;;1.00;;
10902;SDS011;5504;47.312;11.060;2024-03-22T14:11:07;1.10;;;1.00;;
10902;SDS011;5504;47.312;11.060;2024-03-22T14:13:33;1.63;;;1.10;;
10902;SDS011;5504;47.312;11.060;2024-03-22T14:15:58;1.10;;;0.90;;
10902;SDS011;5504;47.312;11.060;2024-03-22T14:18:24;1.35;;;1.00;;
10902;SDS011;5504;47.312;11.060;2024-03-22T14:20:50;1.30;;;1.00;;
10902;SDS011;5504;47.312;11.060;2024-03-22T14:23:15;2.70;;;1.10;;
10902;SDS011;5504;47.312;11.060;2024-03-22T14:25:41;1.77;;;1.15;;
10902;SDS011;5504;47.312;11.060;2024-03-22T14:28:11;1.17;;;1.08;;
10902;SDS011;5504;47.312;11.060;2024-03-22T14:30:37;4.18;;;2.78;;
10902;SDS011;5504;47.312;11.060;2024-03-22T14:33:03;2.05;;;1.77;;
10902;SDS011;5504;47.312;11.060;2024-03-22T14:35:29;1.23;;;0.90;;
10902;SDS011;5504;47.312;11.060;2024-03-22T14:37:55;1.13;;;1.02;;